createdAt,value
2022-09-12T00:00:03.529Z,9.57
2022-09-12T00:02:36.639Z,9.93
2022-09-12T00:05:08.633Z,9.90
2022-09-12T00:07:40.436Z,9.52
2022-09-12T00:10:12.154Z,8.75
2022-09-12T00:12:44.043Z,8.38
2022-09-12T00:15:15.885Z,9.52
2022-09-12T00:17:48.993Z,8.35
2022-09-12T00:20:20.730Z,10.77
2022-09-12T00:22:52.516Z,11.63
2022-09-12T00:25:24.265Z,10.82
2022-09-12T00:27:56.079Z,10.40
2022-09-12T00:30:27.836Z,10.38
2022-09-12T00:33:00.956Z,9.55
2022-09-12T00:35:32.706Z,9.75
2022-09-12T00:38:04.426Z,10.63
2022-09-12T00:40:36.366Z,11.02
2022-09-12T00:43:13.843Z,10.75
2022-09-12T00:45:45.680Z,10.70
2022-09-12T00:48:30.862Z,10.57
2022-09-12T00:51:03.022Z,9.60
2022-09-12T00:53:34.905Z,8.80
2022-09-12T00:56:07.573Z,7.97
2022-09-12T00:58:42.946Z,8.82
2022-09-12T01:01:14.815Z,8.68
2022-09-12T01:03:48.125Z,8.73
2022-09-12T01:06:24.759Z,8.77
2022-09-12T01:08:59.173Z,8.43
2022-09-12T01:11:31.468Z,9.50
2022-09-12T01:14:03.307Z,9.02
2022-09-12T01:16:36.857Z,9.05
2022-09-12T01:19:25.505Z,8.10
2022-09-12T01:22:15.243Z,8.50
2022-09-12T01:25:03.158Z,7.80
2022-09-12T01:27:56.148Z,8.82
2022-09-12T01:30:44.518Z,8.20
2022-09-12T01:33:35.906Z,8.48
2022-09-12T01:36:31.300Z,9.35
2022-09-12T01:39:05.464Z,9.40
2022-09-12T01:41:49.926Z,9.85
2022-09-12T01:44:32.097Z,11.20
2022-09-12T01:47:09.354Z,10.60
2022-09-12T01:49:47.004Z,9.20
2022-09-12T01:52:25.060Z,8.73
2022-09-12T01:55:09.456Z,10.25
2022-09-12T01:57:46.041Z,8.40
2022-09-12T02:00:18.178Z,8.65
2022-09-12T02:02:55.836Z,8.32
2022-09-12T02:05:32.495Z,19.88
2022-09-12T02:08:10.163Z,24.80
2022-09-12T02:10:46.428Z,20.08
2022-09-12T02:13:24.637Z,20.92
2022-09-12T02:16:03.550Z,16.38
2022-09-12T02:18:38.876Z,12.95
2022-09-12T02:21:11.144Z,12.57
2022-09-12T02:23:48.509Z,12.77
2022-09-12T02:26:24.267Z,11.48
2022-09-12T02:29:02.129Z,11.15
2022-09-12T02:31:40.669Z,12.15
2022-09-12T02:34:30.201Z,12.45
2022-09-12T02:37:11.575Z,12.43
2022-09-12T02:39:47.912Z,10.25
2022-09-12T02:42:19.898Z,10.90
2022-09-12T02:44:53.868Z,11.15
2022-09-12T02:47:30.949Z,11.57
2022-09-12T02:50:06.735Z,12.10
2022-09-12T02:52:40.172Z,12.65
2022-09-12T02:57:44.603Z,11.15
2022-09-12T03:00:16.829Z,12.30
2022-09-12T03:03:09.697Z,11.55
2022-09-12T03:05:53.464Z,11.35
2022-09-12T03:11:34.213Z,10.23
2022-09-12T03:14:34.395Z,10.30
2022-09-12T03:17:16.470Z,9.98
2022-09-12T03:19:57.217Z,11.10
2022-09-12T03:22:40.093Z,10.82
2022-09-12T03:25:20.671Z,9.43
2022-09-12T03:27:59.112Z,9.07
2022-09-12T03:30:31.363Z,9.85
2022-09-12T03:33:06.194Z,8.27
2022-09-12T03:35:38.274Z,8.70
2022-09-12T03:38:14.058Z,8.13
2022-09-12T03:40:54.882Z,8.48
2022-09-12T03:43:29.878Z,8.30
2022-09-12T03:46:01.700Z,8.27
2022-09-12T03:48:33.608Z,8.40
2022-09-12T03:51:08.348Z,8.43
2022-09-12T03:53:41.510Z,8.07
2022-09-12T03:56:14.073Z,7.82
2022-09-12T03:58:46.122Z,7.67
2022-09-12T04:01:19.790Z,9.55
2022-09-12T04:03:52.815Z,9.48
2022-09-12T04:06:24.546Z,8.43
2022-09-12T04:08:58.342Z,7.53
2022-09-12T04:11:30.951Z,7.93
2022-09-12T04:14:02.764Z,7.55
2022-09-12T04:16:34.535Z,8.50
2022-09-12T04:19:06.326Z,8.23
2022-09-12T04:21:39.461Z,8.68
2022-09-12T04:24:12.516Z,9.02
2022-09-12T04:26:44.307Z,8.75
2022-09-12T04:29:16.168Z,8.10
2022-09-12T04:31:48.046Z,8.68
2022-09-12T04:34:19.805Z,8.00
2022-09-12T04:36:51.566Z,10.57
2022-09-12T04:39:24.803Z,8.95
2022-09-12T04:41:56.534Z,8.45
2022-09-12T04:44:28.758Z,8.70
2022-09-12T04:47:00.504Z,8.10
2022-09-12T04:49:32.452Z,7.82
2022-09-12T04:52:04.590Z,8.32
2022-09-12T04:54:37.938Z,8.60
2022-09-12T04:57:10.683Z,8.43
2022-09-12T04:59:42.565Z,11.07
2022-09-12T05:02:14.414Z,10.35
2022-09-12T05:04:46.875Z,13.80
2022-09-12T05:07:19.265Z,9.45
2022-09-12T06:00:34.798Z,9.75
2022-09-12T06:03:06.573Z,11.55
2022-09-12T06:05:38.302Z,10.10
2022-09-12T06:08:10.057Z,11.25
2022-09-12T06:10:43.557Z,11.60
2022-09-12T06:15:46.898Z,10.63
2022-09-12T06:18:18.725Z,11.13
2022-09-12T06:20:50.471Z,12.05
2022-09-12T06:23:22.443Z,12.25
2022-09-12T06:25:55.762Z,10.93
2022-09-12T06:28:27.876Z,11.90
2022-09-12T06:31:04.590Z,12.52
2022-09-12T06:33:38.794Z,12.40
2022-09-12T06:36:12.810Z,13.90
2022-09-12T06:38:46.382Z,15.93
2022-09-12T06:41:19.642Z,14.55
2022-09-12T06:43:52.033Z,16.75
2022-09-12T06:46:24.365Z,14.52
2022-09-12T06:48:56.360Z,14.45
2022-09-12T06:51:28.966Z,14.60
2022-09-12T06:54:00.982Z,13.15
2022-09-12T06:56:34.187Z,14.23
2022-09-12T06:59:06.669Z,13.50
2022-09-12T07:01:40.165Z,17.02
2022-09-12T07:04:12.097Z,15.35
2022-09-12T07:06:44.930Z,15.82
2022-09-12T07:09:17.007Z,16.33
2022-09-12T07:11:50.056Z,17.08
2022-09-12T07:14:21.933Z,17.75
2022-09-12T07:16:53.751Z,17.50
2022-09-12T07:19:25.585Z,18.85
2022-09-12T07:21:58.758Z,19.33
2022-09-12T07:24:30.691Z,18.92
2022-09-12T07:27:04.059Z,17.70
2022-09-12T07:29:37.418Z,17.77
2022-09-12T07:32:09.810Z,17.15
2022-09-12T07:34:41.631Z,18.05
2022-09-12T07:37:13.623Z,18.38
2022-09-12T07:59:09.212Z,15.98
2022-09-12T08:01:41.599Z,14.48
2022-09-12T08:04:13.469Z,17.70
2022-09-12T08:06:45.219Z,16.05
2022-09-12T08:09:17.503Z,15.35
2022-09-12T08:11:49.218Z,14.40
2022-09-12T08:14:22.566Z,13.98
2022-09-12T08:16:54.301Z,14.38
2022-09-12T08:19:26.215Z,12.05
2022-09-12T08:21:58.115Z,14.43
2022-09-12T08:24:29.893Z,12.63
2022-09-12T08:27:01.671Z,13.10
2022-09-12T08:29:34.812Z,12.65
2022-09-12T08:32:06.730Z,20.27
2022-09-12T08:34:38.499Z,18.13
2022-09-12T08:37:10.261Z,11.80
2022-09-12T08:39:42.109Z,14.35
2022-09-12T08:42:24.728Z,11.63
2022-09-12T08:45:09.303Z,11.02
2022-09-12T08:47:44.522Z,16.55
2022-09-12T08:50:18.988Z,12.35
2022-09-12T08:52:58.430Z,15.05
2022-09-12T08:55:33.343Z,12.27
2022-09-12T08:58:12.985Z,13.23
2022-09-12T09:00:55.789Z,12.65
2022-09-12T09:03:47.891Z,12.47
2022-09-12T09:06:39.897Z,11.20
2022-09-12T09:09:20.031Z,10.65
2022-09-12T09:12:04.355Z,10.85
2022-09-12T09:15:09.946Z,10.32
2022-09-12T09:17:45.283Z,10.85
2022-09-12T09:20:28.495Z,10.23
2022-09-12T09:23:06.177Z,10.18
2022-09-12T09:25:44.102Z,10.48
2022-09-12T09:28:20.156Z,9.95
2022-09-12T09:30:52.780Z,9.77
2022-09-12T09:33:30.914Z,9.15
2022-09-12T09:36:14.761Z,9.07
2022-09-12T09:38:49.922Z,7.05
2022-09-12T09:41:42.177Z,7.80
2022-09-12T09:44:14.110Z,8.50
2022-09-12T09:46:54.350Z,7.22
2022-09-12T09:49:30.259Z,7.65
2022-09-12T09:52:04.768Z,7.35
2022-09-12T09:54:40.136Z,6.68
2022-09-12T09:57:44.568Z,8.18
2022-09-12T10:00:30.428Z,6.78
2022-09-12T10:03:24.229Z,6.88
2022-09-12T10:06:00.245Z,6.47
2022-09-12T10:08:35.244Z,6.10
2022-09-12T10:11:17.584Z,5.65
2022-09-12T10:13:56.783Z,8.45
2022-09-12T10:16:30.564Z,6.05
2022-09-12T10:19:04.145Z,5.20
2022-09-12T10:21:45.804Z,4.50
2022-09-12T10:24:24.290Z,4.82
2022-09-12T10:26:58.090Z,4.43
2022-09-12T10:29:33.447Z,4.75
2022-09-12T10:32:08.771Z,6.15
2022-09-12T10:34:44.575Z,5.43
2022-09-12T10:37:25.298Z,7.20
2022-09-12T10:39:59.244Z,5.65
2022-09-12T10:42:47.546Z,5.80
2022-09-12T10:45:22.731Z,6.60
2022-09-12T10:47:55.645Z,5.18
2022-09-12T10:50:31.000Z,4.65
2022-09-12T10:53:19.409Z,4.53
2022-09-12T10:56:02.893Z,4.75
2022-09-12T11:01:21.401Z,4.90
2022-09-12T11:04:09.915Z,3.83
2022-09-12T11:07:02.239Z,3.92
2022-09-12T11:09:46.110Z,4.10
2022-09-12T11:12:25.169Z,3.92
2022-09-12T11:15:12.121Z,3.28
2022-09-12T11:17:51.996Z,4.30
2022-09-12T11:20:38.816Z,3.92
2022-09-12T11:23:55.963Z,3.40
2022-09-12T11:26:42.193Z,3.50
2022-09-12T11:29:20.953Z,2.90
2022-09-12T11:32:25.963Z,3.90
2022-09-12T11:35:04.907Z,4.75
2022-09-12T11:38:11.350Z,4.38
2022-09-12T11:40:46.431Z,4.00
2022-09-12T11:43:29.705Z,3.72
2022-09-12T11:46:09.549Z,3.55
2022-09-12T11:48:47.952Z,3.17
2022-09-12T11:51:25.802Z,2.90
2022-09-12T11:54:09.518Z,2.70
2022-09-12T11:56:45.493Z,2.83
2022-09-12T11:59:29.866Z,5.13
2022-09-12T12:02:03.583Z,3.80
2022-09-12T12:04:41.381Z,6.22
2022-09-12T12:07:13.138Z,2.63
2022-09-12T12:09:49.199Z,2.45
2022-09-12T12:12:25.203Z,2.10
2022-09-12T12:14:59.558Z,2.33
2022-09-12T12:17:32.955Z,1.88
2022-09-12T12:20:08.677Z,1.80
2022-09-12T12:22:52.076Z,1.73
2022-09-12T12:28:02.398Z,1.63
2022-09-12T12:31:02.848Z,1.65
2022-09-12T12:34:00.341Z,1.73
2022-09-12T12:36:36.868Z,1.63
2022-09-12T12:39:51.823Z,1.70
2022-09-12T12:42:59.963Z,1.70
2022-09-12T12:46:11.100Z,1.65
2022-09-12T12:48:55.933Z,1.60
2022-09-12T12:51:48.703Z,1.83
2022-09-12T12:54:50.219Z,1.70
2022-09-12T12:57:32.082Z,1.30
2022-09-12T13:00:06.928Z,1.40
2022-09-12T13:02:51.854Z,1.40
2022-09-12T13:05:25.990Z,1.30
2022-09-12T13:08:02.831Z,1.60
2022-09-12T13:10:35.029Z,1.15
2022-09-12T13:13:08.624Z,1.20
2022-09-12T13:15:51.666Z,1.20
2022-09-12T13:18:30.908Z,1.10
2022-09-12T13:21:09.998Z,1.00
2022-09-12T13:23:42.162Z,1.20
2022-09-12T13:26:27.678Z,1.10
2022-09-12T13:29:15.025Z,1.10
2022-09-12T13:31:50.813Z,1.08
2022-09-12T13:34:27.103Z,1.00
2022-09-12T13:37:21.982Z,0.95
2022-09-12T13:39:59.716Z,0.90
2022-09-12T13:42:40.248Z,1.00
2022-09-12T13:45:15.338Z,1.10
2022-09-12T13:47:50.080Z,1.00
2022-09-12T13:50:24.851Z,1.20
2022-09-12T13:52:59.370Z,1.00
2022-09-12T13:55:33.367Z,0.95
2022-09-12T13:58:06.856Z,0.98
2022-09-12T14:00:38.650Z,0.90
2022-09-12T14:03:45.428Z,0.70
2022-09-12T14:06:19.032Z,0.60
2022-09-12T14:08:51.919Z,0.88
2022-09-12T14:11:27.817Z,0.70
2022-09-12T14:14:04.318Z,0.80
2022-09-12T14:16:40.259Z,0.70
2022-09-12T14:19:12.738Z,0.70
2022-09-12T14:24:17.806Z,0.77
2022-09-12T14:26:50.938Z,0.70
2022-09-12T14:29:25.154Z,0.70
2022-09-12T14:32:05.790Z,0.80
2022-09-12T14:34:37.675Z,1.00
2022-09-12T14:37:12.747Z,0.70
2022-09-12T14:39:45.570Z,0.80
2022-09-12T14:42:22.038Z,0.95
2022-09-12T14:44:58.276Z,0.70
2022-09-12T14:47:38.561Z,0.88
2022-09-12T14:50:17.107Z,1.00
2022-09-12T14:53:03.846Z,0.90
2022-09-12T14:55:43.110Z,0.80
2022-09-12T14:58:22.470Z,0.90
2022-09-12T15:00:56.834Z,0.90
2022-09-12T15:03:31.568Z,1.00
2022-09-12T15:06:05.172Z,0.95
2022-09-12T15:08:38.475Z,0.90
2022-09-12T15:11:10.213Z,0.90
2022-09-12T15:13:42.605Z,1.10
2022-09-12T15:16:14.675Z,1.00
2022-09-12T15:18:46.833Z,0.90
2022-09-12T15:21:20.457Z,0.88
2022-09-12T15:23:53.843Z,0.80
2022-09-12T15:26:30.459Z,0.90
2022-09-12T15:29:03.182Z,0.90
2022-09-12T15:31:35.081Z,0.90
2022-09-12T15:34:06.842Z,1.00
2022-09-12T15:36:38.861Z,0.85
2022-09-12T15:39:12.258Z,0.90
2022-09-12T15:41:44.053Z,0.90
2022-09-12T15:44:15.881Z,0.85
2022-09-12T15:46:47.711Z,0.80
2022-09-12T15:49:19.507Z,0.90
2022-09-12T15:51:51.277Z,0.90
2022-09-12T15:54:24.352Z,0.93
2022-09-12T15:56:56.091Z,2.35
2022-09-12T15:59:27.877Z,1.20
2022-09-12T16:01:59.828Z,1.05
2022-09-12T16:04:31.855Z,0.90
2022-09-12T16:07:04.057Z,1.00
2022-09-12T16:09:37.556Z,0.98
2022-09-12T16:12:09.941Z,0.90
2022-09-12T16:14:41.736Z,0.85
2022-09-12T16:17:13.649Z,0.88
2022-09-12T16:19:45.465Z,1.20
2022-09-12T16:22:17.299Z,0.80
2022-09-12T16:24:50.378Z,0.95
2022-09-12T16:27:22.261Z,1.00
2022-09-12T16:29:54.025Z,1.00
2022-09-12T16:32:25.820Z,1.00
2022-09-12T16:34:57.889Z,0.98
2022-09-12T16:37:30.895Z,0.97
2022-09-12T16:42:39.621Z,0.90
2022-09-12T16:45:13.999Z,1.08
2022-09-12T16:47:45.920Z,1.00
2022-09-12T16:50:17.757Z,0.93
2022-09-12T16:52:49.507Z,0.90
2022-09-12T16:55:22.619Z,1.00
2022-09-12T16:57:54.835Z,1.00
2022-09-12T17:00:26.571Z,1.00
2022-09-12T17:02:59.283Z,1.17
2022-09-12T17:05:31.139Z,1.00
2022-09-12T17:08:03.157Z,1.02
2022-09-12T17:10:40.298Z,0.93
2022-09-12T17:13:12.082Z,1.17
2022-09-12T17:15:43.824Z,1.00
2022-09-12T17:18:15.583Z,1.30
2022-09-12T17:20:47.375Z,1.10
2022-09-12T17:23:19.163Z,1.20
2022-09-12T17:25:52.451Z,1.20
2022-09-12T17:28:24.297Z,1.02
2022-09-12T17:30:57.055Z,1.50
2022-09-12T17:33:29.895Z,1.52
2022-09-12T17:36:02.847Z,1.48
2022-09-12T17:38:36.481Z,1.48
2022-09-12T17:41:17.519Z,1.40
2022-09-12T17:43:52.238Z,1.42
2022-09-12T17:46:25.933Z,1.70
2022-09-12T17:48:58.869Z,1.63
2022-09-12T17:51:31.413Z,1.50
2022-09-12T17:54:05.518Z,1.60
2022-09-12T17:56:39.157Z,1.52
2022-09-12T17:59:14.511Z,1.70
2022-09-12T18:02:05.696Z,1.75
2022-09-12T18:04:37.645Z,1.55
2022-09-12T18:07:09.458Z,1.50
2022-09-12T18:09:44.548Z,1.80
2022-09-12T18:12:19.979Z,1.80
2022-09-12T18:14:51.782Z,1.80
2022-09-12T18:17:23.603Z,1.92
2022-09-12T18:19:55.408Z,2.00
2022-09-12T18:22:27.164Z,2.13
2022-09-12T18:24:59.232Z,2.00
2022-09-12T18:27:32.345Z,2.08
2022-09-12T18:30:20.524Z,2.35
2022-09-12T18:32:53.195Z,1.83
2022-09-12T18:35:25.464Z,2.13
2022-09-12T18:37:57.290Z,2.35
2022-09-12T18:40:29.054Z,2.55
2022-09-12T18:43:02.170Z,2.67
2022-09-12T18:45:34.681Z,2.80
2022-09-12T18:48:06.548Z,2.88
2022-09-12T18:50:38.319Z,2.92
2022-09-12T18:53:10.058Z,2.65
2022-09-12T18:55:42.348Z,2.22
2022-09-12T18:58:15.423Z,2.50
2022-09-12T19:00:49.135Z,2.33
2022-09-12T19:03:20.910Z,2.80
2022-09-12T19:05:53.293Z,3.13
2022-09-12T19:08:25.148Z,2.90
2022-09-12T19:10:57.460Z,2.90
2022-09-12T19:13:31.065Z,3.28
2022-09-12T19:16:04.113Z,3.08
2022-09-12T19:18:37.016Z,2.88
2022-09-12T19:21:13.708Z,2.60
2022-09-12T19:23:45.818Z,3.22
2022-09-12T19:26:19.074Z,3.63
2022-09-12T19:31:26.063Z,2.85
2022-09-12T19:34:00.433Z,3.20
2022-09-12T19:36:48.347Z,3.33
2022-09-12T19:39:20.198Z,2.75
2022-09-12T19:41:52.005Z,3.10
2022-09-12T19:44:27.521Z,3.10
2022-09-12T19:46:59.294Z,3.15
2022-09-12T19:49:31.066Z,3.70
2022-09-12T19:52:03.493Z,3.50
2022-09-12T19:54:35.534Z,3.67
2022-09-12T19:57:07.336Z,3.20
2022-09-12T19:59:40.468Z,3.78
2022-09-12T20:02:12.343Z,3.97
2022-09-12T20:04:44.322Z,4.40
2022-09-12T20:07:16.243Z,4.03
2022-09-12T20:09:48.039Z,4.38
2022-09-12T20:12:19.815Z,4.70
2022-09-12T20:14:53.034Z,4.40
2022-09-12T20:17:24.798Z,4.57
2022-09-12T20:19:57.125Z,5.22
2022-09-12T20:22:29.418Z,4.78
2022-09-12T20:25:01.215Z,4.63
2022-09-12T20:27:32.970Z,5.25
2022-09-12T20:30:07.504Z,4.82
2022-09-12T20:32:39.294Z,4.78
2022-09-12T20:35:11.576Z,4.90
2022-09-12T20:37:43.761Z,4.88
2022-09-12T20:40:15.695Z,4.55
2022-09-12T20:42:47.492Z,3.97
2022-09-12T20:45:20.680Z,4.30
2022-09-12T20:47:52.429Z,4.05
2022-09-12T20:50:24.153Z,4.18
2022-09-12T20:52:55.921Z,3.60
2022-09-12T20:55:27.829Z,4.13
2022-09-12T20:57:59.580Z,3.90
2022-09-12T21:00:33.045Z,4.25
2022-09-12T21:03:05.195Z,3.72
2022-09-12T21:05:37.609Z,3.67
2022-09-12T21:08:09.899Z,3.87
2022-09-12T21:10:42.223Z,4.13
2022-09-12T21:13:14.351Z,3.72
2022-09-12T21:15:47.441Z,3.40
2022-09-12T21:18:19.233Z,4.00
2022-09-12T21:20:51.769Z,3.42
2022-09-12T21:23:24.891Z,4.00
2022-09-12T21:25:58.335Z,3.85
2022-09-12T21:31:04.372Z,3.50
2022-09-12T21:36:09.471Z,3.35
2022-09-12T21:41:15.139Z,4.20
2022-09-12T21:43:46.888Z,4.30
2022-09-12T21:46:20.061Z,4.18
2022-09-12T21:48:51.852Z,4.25
2022-09-12T21:51:23.635Z,4.20
2022-09-12T21:53:55.337Z,4.35
2022-09-12T21:56:27.144Z,4.47
2022-09-12T21:58:58.913Z,4.15
2022-09-12T22:01:32.040Z,3.97
2022-09-12T22:04:03.845Z,4.25
2022-09-12T22:06:35.702Z,4.70
2022-09-12T22:09:07.431Z,4.70
2022-09-12T22:11:39.290Z,4.28
2022-09-12T22:14:11.070Z,4.20
2022-09-12T22:16:44.326Z,4.38
2022-09-12T22:19:16.156Z,4.10
2022-09-12T22:22:06.622Z,4.72
2022-09-12T22:24:38.432Z,4.40
2022-09-12T22:27:10.205Z,4.40
2022-09-12T22:29:42.565Z,4.20
2022-09-12T22:32:15.943Z,4.65
2022-09-12T22:37:19.606Z,3.80
2022-09-12T22:39:51.402Z,4.28
2022-09-12T22:42:23.667Z,4.10
2022-09-12T22:44:55.456Z,4.20
2022-09-12T22:47:28.573Z,3.95
2022-09-12T22:50:00.325Z,4.57
2022-09-12T22:52:32.054Z,4.03
2022-09-12T22:55:04.210Z,3.90
2022-09-12T22:57:36.022Z,4.68
2022-09-12T23:00:12.135Z,4.43
2022-09-12T23:02:45.228Z,3.95
2022-09-12T23:05:17.168Z,4.22
2022-09-12T23:07:50.206Z,4.70
2022-09-12T23:10:22.049Z,4.60
2022-09-12T23:12:55.389Z,4.93
2022-09-12T23:15:28.153Z,4.10
2022-09-12T23:18:01.271Z,4.30
2022-09-12T23:20:33.047Z,3.90
2022-09-12T23:23:04.816Z,4.32
2022-09-12T23:25:36.972Z,4.70
2022-09-12T23:28:08.736Z,4.97
2022-09-12T23:30:40.508Z,4.47
2022-09-12T23:33:13.616Z,4.72
2022-09-12T23:35:45.352Z,4.90
2022-09-12T23:38:17.087Z,4.50
2022-09-12T23:40:48.827Z,3.97
2022-09-12T23:43:20.651Z,3.78
2022-09-12T23:45:52.424Z,4.10
2022-09-12T23:48:26.182Z,4.97
2022-09-12T23:50:57.964Z,4.45
2022-09-12T23:53:29.719Z,4.50
2022-09-12T23:56:02.289Z,4.10
2022-09-12T23:58:34.094Z,3.70
